Pagrindinis puslapis
METAR-TAF:

METAR-TAF

Oro uostai :

Karakasas, Venesuela

platuma: 10-36N, ilguma: 066-59W, Aukštis: 43 m

Dabartinis oras

Ataskaita buvo paskelbta 58 minutes, ne 05:02 UTC
Vėjas 2 kt iš Rytų
Temperatūra
Slėgis 1016 hPa

METAR: SVMI 230502Z AUTO 10002KT NCD -40/// Q1016

Laikas: 02:00 (06:00 UTC)

Prognozė

Ataskaita buvo paskelbta 2 valandos ir 0 minutes, ne 04:00 UTC
Prognozė galioja nuo 23 metu 06 UTC su 24 metu 06 UTC
Vėjas 6 kt iš Rytų/Pietryčių
Matomumas 10 km arba daugiau
Išsisklaidę debesys ne aukštis 1600 ft
Laikinai
nuo 23 metu 06 UTC su 23 metu 10 UTC
Vėjas kt iš Šiaurės
Matomumas 10 km arba daugiau
Mažai debesys ne aukštis 1600 ft

TAF: SVMI 230400Z 2306/2406 11006KT 9999 SCT016 TX31/18Z TN24/08Z TEMPO 2306/2310 00000KT 9999 FEW016

Orai ataskaitas ir orų prognozės (METAR, TAF).

turimą stotys yra geltonos ir raudonos taškus žemėlapyje.

Perkelti pele per norėdami pamatyti stoties vardą.

Tada spustelėkite, norėdami matyti oro stebėjimo ir prognozės.

Norėdami pakeisti žemėlapį: spustelėkite ant žalios mygtukų su juodo kryžiaus žemyn,; žalią mygtuką su brūkšneliu, jei norite nutolinti; arba žalių rodyklių gretimoms žemėlapius.


METAR-TAF: